Tiempo atmosférico en la estación meteorológica de Amorebieta--Etxano, Bizkaia (100 m.)



Fecha
DESCASC
Temp. máxima en grados centígrados (hora)
DESCASC
Temp. mínima en grados centígrados (hora)
DESCASC
Temp. media en grados centígrados
DESCASC
Racha de viento máxima en m/sg (hora)
DESCASC
Velocidad máxima media en intervalos de 10 minutos(hora)
DESCASC
Precipitaciones diarias en mm
DESCASC
Precipitaciones de 00:00 a 06:00 en mm
DESCASC
Precipitaciones de 06:00 a 12:00 en mm
DESCASC
Precipitaciones de 12:00 a 18:00 en mm
DESCASC
Precipitaciones de 18:00 a 24:00 en mm
DESCASC
16-01-2020 18.3 (16:40) 12.1 (00:00) 15.2 13.89 (15:40) 6.94 (19:30) 0 0 0 0 0
15-01-2020 17.6 (16:40) 7.1 (21:40) 12.4 18.89 (05:30) 11.94 (05:30) 0 0 0 0 0
14-01-2020 16.7 (13:10) 7.5 (09:20) 12.1 13.33 (20:40) 5.28 (21:20) 0 0 0 0 0
13-01-2020 14.8 (16:10) 0.1 (06:50) 7.5 7.22 (21:30) 2.78 (15:00) 0 0 0 0 0
12-01-2020 14.1 (15:30) -0.3 (00:00) 6.9 2.78 (18:00) 1.67 (18:10) 0 0 0 0 0
11-01-2020 13.4 (15:00) 1.9 (00:00) 7.6 4.17 (14:40) 2.5 (14:30) 0.2 0 0.2 0 0
10-01-2020 11.3 (15:20) 5.9 (00:00) 8.6 8.89 (02:00) 5 (02:00) 9.6 1.6 2.4 5.2 0.4
09-01-2020 16.6 (16:30) 5 (00:00) 10.8 20.28 (16:50) 11.11 (16:50) 1.8 0 0 0.6 1.2
08-01-2020 17.5 (15:10) 4.6 (00:00) 11 2.78 (00:10) 1.67 (00:30) 0 0 0 0 0
07-01-2020 16.6 (15:30) 2.4 (00:00) 9.5 4.17 (12:00) 2.22 (13:10) 0 0 0 0 0
06-01-2020 13.5 (14:50) 0.6 (00:00) 7.1 6.11 (15:20) 4.17 (15:20) 0 0 0 0 0
05-01-2020 12.6 (15:00) 3 (00:00) 7.8 4.44 (16:00) 2.22 (16:00) 0 0 0 0 0
04-01-2020 11.1 (13:30) 6.3 (00:00) 8.7 5.56 (13:50) 3.61 (14:00) 4.6 2 1.6 1 0
03-01-2020 8.5 (16:30) 0.8 (00:00) 4.7 3.33 (15:20) 1.67 (04:30) 0 0 0 0 0
02-01-2020 13.1 (14:10) -1 (-00:0) 6.1 1.67 (05:50) 1.11 (05:50) 0.2 0 0.2 0 0
01-01-2020 13.8 (14:20) 1.8 (00:00) 7.8 3.61 (12:10) 1.94 (12:10) 0 0 0 0 0
31-12-2019 13.2 (15:20) -1.2 (-00:0) 6 2.5 (15:30) 1.67 (15:30) 0 0 0 0 0
30-12-2019 -- (--) -- (--) -- -- (--) -- (--) -- 0 0 -- 0
29-12-2019 15.2 (15:20) -0.2 (00:00) 7.5 2.22 (02:00) 1.39 (02:00) 0 0 0 0 0
28-12-2019 15.3 (15:20) 0.4 (00:00) 7.9 3.33 (15:30) 2.22 (15:30) 0 0 0 0 0
27-12-2019 15.1 (15:30) 0.4 (00:00) 7.8 2.5 (15:00) 1.67 (15:10) 0 0 0 0 0
26-12-2019 18.8 (02:40) 3.7 (00:00) 11.2 12.22 (03:10) 7.5 (03:10) 0 0 0 0 0
25-12-2019 21.7 (15:00) 4.7 (00:00) 13.2 3.61 (23:59) 1.67 (14:00) 0 0 0 0 0
24-12-2019 19.8 (15:20) 5.5 (00:00) 12.6 2.78 (04:10) 1.39 (04:20) 0 0 0 0 0
23-12-2019 15.8 (14:10) 6.7 (00:00) 11.3 8.61 (00:50) 3.89 (00:50) 0 0 0 0 0
22-12-2019 16 (13:40) 9.6 (00:00) 12.8 18.89 (04:30) 9.44 (01:50) 9.2 1.2 0 4.4 3.6
21-12-2019 21.4 (14:30) 6.2 (00:00) 13.8 20.28 (22:30) 11.11 (15:00) 3.4 0 0 2.8 0.6
20-12-2019 15.5 (00:10) 8.4 (00:00) 11.9 19.17 (03:50) 8.61 (03:50) 14.4 7 0 4.6 2.8
19-12-2019 17.4 (17:40) 13.7 (06:40) 15.5 27.22 (23:40) 10 (23:40) 1.8 0 0 0 1.8

Gráficas

Temp. máximas Temp. mínimas Temp. medias Precipitaciones Rachas de viento máximas Velocidades máximas media en intervalos de 10 minutos

Datos horarios

Fecha y hora oficial Temperatura (ºC) Velocidad del viento (km/h) Dirección del viento Racha (km/h) Dirección de racha Precipitación (mm) Presión (hPa) Tendencia (hPa) Humedad (%)
2020-01-17 23:00:00 5.8 3 Sudeste 8 Sudeste 0 -- -- 94
2020-01-17 22:00:00 6.3 3 Sudeste 8 Sudeste 0 -- -- 94
2020-01-17 21:00:00 6.3 3 Sudeste 6 Sudeste 0 -- -- 94
2020-01-17 20:00:00 6.2 4 Sudeste 12 Este 0 -- -- 92
2020-01-17 19:00:00 7.2 4 Este 9 Este 0 -- -- 89
2020-01-17 18:00:00 9 3 Sur 9 Oeste 0 -- -- 83
2020-01-17 17:00:00 10.3 3 Sudoeste 21 Norte 0 -- -- 79
2020-01-17 16:00:00 11.4 12 Noroeste 21 Noroeste 0 -- -- 69
2020-01-17 15:00:00 10.5 8 Oeste 15 Oeste 0 -- -- 77
2020-01-17 14:00:00 10 3 Oeste 21 Oeste 0 -- -- 81
2020-01-17 13:00:00 10 12 Oeste 24 Oeste 0.4 -- -- 83
2020-01-17 12:00:00 10 5 Oeste 15 Noroeste 0 -- -- 82
2020-01-17 11:00:00 9.1 3 Nordeste 21 Sudoeste 1.2 -- -- 89
2020-01-17 10:00:00 9 4 Sur 9 Este 0 -- -- 93
2020-01-17 09:00:00 8.8 3 Este 10 Noroeste 0 -- -- 93
2020-01-17 08:00:00 9.3 12 Noroeste 37 Noroeste 0.4 -- -- 88
2020-01-17 07:00:00 10.5 8 Oeste 30 Sur 0.6 -- -- 85
2020-01-17 06:00:00 12.7 12 Sudoeste 26 Sudoeste 0.6 -- -- 70
2020-01-17 05:00:00 13.8 4 Sudoeste 22 Sudoeste 0 -- -- 56
2020-01-17 04:00:00 14 17 Sudoeste 35 Oeste 0 -- -- 56
2020-01-17 03:00:00 14.2 17 Sudoeste 30 Sur 0 -- -- 54
2020-01-17 02:00:00 14.6 7 Sudoeste 37 Sudeste 0 -- -- 53
2020-01-17 01:00:00 15 6 Sur 38 Sur 0 -- -- 53
2020-01-17 00:00:00 15.5 15 Sur 44 Sur 0 -- -- 50
2020-01-16 23:00:00 16.8 19 Oeste 47 Oeste 0 -- -- 41
2020-01-16 22:00:00 16.8 9 Este 34 Sudoeste 0 -- -- 45
2020-01-16 21:00:00 17.5 14 Sudeste 42 Sudeste 0 -- -- 44
2020-01-16 20:00:00 17.7 13 Sur 48 Sur 0 -- -- 43
2020-01-16 19:00:00 17.9 19 Sur 42 Sur 0 -- -- 40
2020-01-16 18:00:00 17.5 7 Sur 41 Sur 0 -- -- 45
2020-01-16 17:00:00 18.3 10 Sudeste 34 Sudoeste 0 -- -- 44
2020-01-16 16:00:00 17.8 13 Sudeste 50 Sudeste 0 -- -- 50
2020-01-16 15:00:00 17.2 14 Sudeste 33 Este 0 -- -- 52
2020-01-16 14:00:00 17.7 17 Sudeste 40 Sudeste 0 -- -- 51
2020-01-16 13:00:00 17.3 12 Este 32 Este 0 -- -- 54
2020-01-16 12:00:00 15.9 9 Este 28 Este 0 -- -- 56
2020-01-16 11:00:00 15 7 Sudeste 37 Este 0 -- -- 59
2020-01-16 10:00:00 13.2 8 Sudeste 38 Este 0 -- -- 63
2020-01-16 09:00:00 13.2 20 Este 41 Este 0 -- -- 63
2020-01-16 08:00:00 13.2 12 Este 34 Este 0 -- -- 63
2020-01-16 07:00:00 12.9 13 Este 47 Este 0 -- -- 64
2020-01-16 06:00:00 13 21 Este 39 Este 0 -- -- 63
2020-01-16 05:00:00 13.9 17 Este 40 Este 0 -- -- 62
2020-01-16 04:00:00 14 19 Este 34 Este 0 -- -- 62
2020-01-16 03:00:00 13.6 10 Este 29 Este 0 -- -- 65
2020-01-16 02:00:00 13.1 12 Sudeste 29 Este 0 -- -- 67
2020-01-16 01:00:00 13.1 10 Este 30 Este 0 -- -- 65
2020-01-16 00:00:00 12.1 7 Sudeste 22 Este 0 -- -- 70
2020-01-15 23:00:00 10 5 Sudeste 21 Este 0 -- -- 78
2020-01-15 22:00:00 7.2 3 Sudoeste 9 Sur 0 -- -- 93
2020-01-15 21:00:00 7.5 4 Sudeste 8 Este 0 -- -- 93
2020-01-15 20:00:00 9.2 0 Calma 6 Este 0 -- -- 89
2020-01-15 19:00:00 11.2 2 Norte 11 Noroeste 0 -- -- 85
2020-01-15 18:00:00 13 6 Oeste 21 Noroeste 0 -- -- 80
2020-01-15 17:00:00 16.8 13 Oeste 22 Sur 0 -- -- 64
2020-01-15 16:00:00 17 9 Sudoeste 29 Sudoeste 0 -- -- 54
2020-01-15 15:00:00 16.5 6 Oeste 34 Sur 0 -- -- 52
2020-01-15 14:00:00 15.4 11 Sur 40 Sur 0 -- -- 54
2020-01-15 13:00:00 15.2 18 Sur 42 Sur 0 -- -- 54
2020-01-15 12:00:00 14.5 5 Oeste 43 Sur 0 -- -- 54
2020-01-15 11:00:00 14.6 15 Sur 64 Sur 0 -- -- 54
2020-01-15 10:00:00 14.5 19 Sur 61 Sur 0 -- -- 53
2020-01-15 09:00:00 15.1 26 Sur 59 Sur 0 -- -- 51
2020-01-15 08:00:00 14.7 16 Sur 59 Sur 0 -- -- 52
2020-01-15 07:00:00 14.6 22 Sur 63 Sudoeste 0 -- -- 53
2020-01-15 06:00:00 14.3 21 Sur 68 Sur 0 -- -- 56
2020-01-15 05:00:00 13.7 32 Sur 58 Sur 0 -- -- 58
2020-01-15 04:00:00 13.2 27 Sur 57 Sudeste 0 -- -- 60
2020-01-15 03:00:00 14.1 9 Sur 49 Sur 0 -- -- 56
2020-01-15 02:00:00 14.3 32 Sur 65 Sudoeste 0 -- -- 56
2020-01-15 01:00:00 12.7 13 Este 27 Este 0 -- -- 58
2020-01-15 00:00:00 12.6 9 Sudeste 40 Sudeste 0 -- -- 59
2020-01-14 23:00:00 13.8 11 Sur 35 Sur 0 -- -- 52
2020-01-14 22:00:00 13.7 12 Sudeste 45 Sudeste 0 -- -- 52
2020-01-14 21:00:00 13.9 15 Este 48 Este 0 -- -- 49
2020-01-14 20:00:00 14 11 Este 32 Este 0 -- -- 49
2020-01-14 19:00:00 14.3 11 Sudeste 28 Sudeste 0 -- -- 48
2020-01-14 18:00:00 14.1 6 Sur 26 Noroeste 0 -- -- 51
2020-01-14 17:00:00 15 8 Sur 32 Sudeste 0 -- -- 45
2020-01-14 16:00:00 16.3 13 Sur 37 Noroeste 0 -- -- 42
2020-01-14 15:00:00 16.1 14 Oeste 37 Sudoeste 0 -- -- 44
2020-01-14 14:00:00 16.6 12 Sudoeste 23 Oeste 0 -- -- 46
2020-01-14 13:00:00 16.4 8 Sudeste 40 Oeste 0 -- -- 50
2020-01-14 12:00:00 13.5 8 Este 23 Sudoeste 0 -- -- 59
2020-01-14 11:00:00 11.2 6 Sudeste 16 Este 0 -- -- 67
2020-01-14 10:00:00 8.9 5 Nordeste 10 Nordeste 0 -- -- 76
2020-01-14 09:00:00 8 4 Sur 8 Este 0 -- -- 78
2020-01-14 08:00:00 8.8 2 Oeste 14 Este 0 -- -- 74
2020-01-14 07:00:00 8.7 3 Sudeste 19 Este 0 -- -- 74
2020-01-14 06:00:00 10.1 12 Este 20 Este 0 -- -- 65
2020-01-14 05:00:00 10.3 7 Este 18 Este 0 -- -- 62
2020-01-14 04:00:00 9.9 3 Nordeste 15 Este 0 -- -- 62
2020-01-14 03:00:00 9.7 4 Sudoeste 10 Sur 0 -- -- 62
2020-01-14 02:00:00 10.2 6 Sudeste 18 Sur 0 -- -- 58
2020-01-14 01:00:00 8.6 8 Sudeste 22 Este 0 -- -- 63
2020-01-14 00:00:00 8.7 5 Sudeste 22 Este 0 -- -- 60
2020-01-13 23:00:00 8.4 4 Sudeste 10 Este 0 -- -- 58
2020-01-13 22:00:00 9.1 5 Sudeste 26 Este 0 -- -- 53
2020-01-13 21:00:00 9.5 6 Sudeste 23 Este 0 -- -- 54
2020-01-13 20:00:00 10.4 9 Sudeste 25 Este 0 -- -- 50
2020-01-13 19:00:00 9.1 6 Sur 18 Sur 0 -- -- 55
2020-01-13 18:00:00 10.1 8 Sudeste 19 Sur 0 -- -- 62
2020-01-13 17:00:00 12.1 7 Sudeste 15 Sudeste 0 -- -- 49
2020-01-13 16:00:00 14.7 5 Sudeste 22 Este 0 -- -- 44
2020-01-13 15:00:00 14.1 10 Sudeste 21 Este 0 -- -- 48
2020-01-13 14:00:00 12.2 5 Sudeste 12 Este 0 -- -- 64
2020-01-13 13:00:00 10.3 4 Sudeste 9 Noroeste 0 -- -- 74
2020-01-13 12:00:00 7.1 0 Calma 6 Sudoeste 0 -- -- 97
2020-01-13 11:00:00 4.2 0 Calma 8 Sudoeste 0 -- -- 100
2020-01-13 10:00:00 1.9 0 Calma 4 Sudoeste 0 -- -- 100
2020-01-13 09:00:00 0.9 0 Calma 7 Este 0 -- -- 100
2020-01-13 08:00:00 0.6 4 Este 6 Este 0 -- -- 100
2020-01-13 07:00:00 0.1 2 Norte 5 Sur 0 -- -- 100
2020-01-13 06:00:00 0.5 2 Sur 4 Sudeste 0 -- -- 100
2020-01-13 05:00:00 0.6 0 Calma 4 Este 0 -- -- 99
2020-01-13 04:00:00 0.9 0 Calma 4 Sudeste 0 -- -- 99
2020-01-13 03:00:00 1.2 0 Calma 4 Sudeste 0 -- -- 98
2020-01-13 02:00:00 1.7 0 Calma 3 Sur 0 -- -- 98
2020-01-13 01:00:00 2 0 Calma 8 Sudeste 0 -- -- 98
2020-01-13 00:00:00 2.1 0 Calma 8 Sudeste 0 -- -- 97
2020-01-12 23:00:00 2.6 3 Sudeste 6 Sudeste 0 -- -- 97
2020-01-12 22:00:00 3.2 3 Sudeste 6 Sudeste 0 -- -- 95
2020-01-12 21:00:00 4 0 Calma 8 Sudeste 0 -- -- 94
2020-01-12 20:00:00 5.1 3 Sudeste 5 Sudeste 0 -- -- 91
2020-01-12 19:00:00 6.5 2 Sudeste 10 Sudeste 0 -- -- 86
2020-01-12 18:00:00 8.5 5 Sudeste 10 Este 0 -- -- 79
2020-01-12 17:00:00 11.7 6 Sudeste 8 Sudeste 0 -- -- 66
2020-01-12 16:00:00 13.6 3 Sudoeste 7 Sudoeste 0 -- -- 62
2020-01-12 15:00:00 13.7 4 Sudoeste 6 Sudoeste 0 -- -- 55
2020-01-12 14:00:00 11.7 2 Sur 7 Sur 0 -- -- 66
2020-01-12 13:00:00 9.2 3 Sudoeste 6 Sudoeste 0 -- -- 79
2020-01-12 12:00:00 6.2 4 Sur 8 Sur 0 -- -- 93
2020-01-12 11:00:00 2.6 2 Este 5 Este 0 -- -- 100
2020-01-12 10:00:00 0 0 Calma 3 Este 0 -- -- 100
2020-01-12 09:00:00 -0.3 0 Calma 3 Sudeste 0 -- -- 100
2020-01-12 08:00:00 -0.3 0 Calma 2 Sur 0 -- -- 100
2020-01-12 07:00:00 -0.3 0 Calma 3 Nordeste 0 -- -- 100
2020-01-12 06:00:00 -0.1 0 Calma 5 Sudeste 0 -- -- 100
2020-01-12 05:00:00 0.6 0 Calma 3 Sur 0 -- -- 100
2020-01-12 04:00:00 0.9 2 Sur 3 Sudeste 0 -- -- 100
2020-01-12 03:00:00 0.8 0 Calma 2 Sur 0 -- -- 99
2020-01-12 02:00:00 0.9 0 Calma 4 Sudeste 0 -- -- 99
2020-01-12 01:00:00 1.4 2 Sudeste 5 Sudeste 0 -- -- 99
2020-01-12 00:00:00 1.9 2 Sudeste 3 Sudeste 0 -- -- 98
2020-01-11 23:00:00 2.5 0 Calma 5 Sudeste 0 -- -- 98
2020-01-11 22:00:00 3.4 2 Sudeste 5 Sudeste 0 -- -- 97
2020-01-11 21:00:00 4.2 5 Sudeste 8 Sudeste 0 -- -- 96
2020-01-11 20:00:00 5.1 3 Sudeste 9 Sudeste 0 -- -- 95
2020-01-11 19:00:00 6.4 5 Sudeste 9 Sudeste 0 -- -- 90
2020-01-11 18:00:00 8.3 4 Este 8 Sudeste 0 -- -- 85
2020-01-11 17:00:00 11.8 2 Sur 8 Sur 0 -- -- 72
2020-01-11 16:00:00 13 6 Sur 12 Sudeste 0 -- -- 67
2020-01-11 15:00:00 13.4 8 Sur 15 Sudeste 0 -- -- 61
2020-01-11 14:00:00 12.9 6 Sur 13 Sur 0 -- -- 63
2020-01-11 13:00:00 11.4 5 Sudeste 11 Sudeste 0 -- -- 76
2020-01-11 12:00:00 9.3 4 Sudeste 10 Este 0.2 -- -- 89
2020-01-11 11:00:00 6.7 4 Este 9 Sudeste 0 -- -- 100
2020-01-11 10:00:00 4.9 2 Sudeste 10 Sur 0 -- -- 100
2020-01-11 09:00:00 4.9 5 Sudeste 12 Sudeste 0 -- -- 100
2020-01-11 08:00:00 4.9 4 Sudeste 14 Sudeste 0 -- -- 100
2020-01-11 07:00:00 4.8 4 Sudeste 9 Sudeste 0 -- -- 100
2020-01-11 06:00:00 4.6 3 Sudeste 12 Sudeste 0 -- -- 100
2020-01-11 05:00:00 4.8 4 Sudeste 10 Sudeste 0 -- -- 100
2020-01-11 04:00:00 5.2 2 Sudeste 6 Sur 0 -- -- 100
2020-01-11 03:00:00 5.3 4 Sur 8 Sur 0 -- -- 100
2020-01-11 02:00:00 5.6 0 Calma 3 Este 0 -- -- 100
2020-01-11 01:00:00 5.8 3 Sur 4 Sur 0 -- -- 100
2020-01-11 00:00:00 6 3 Sudeste 5 Sudeste 0 -- -- 100
2020-01-10 23:00:00 6 3 Sur 6 Este 0 -- -- 99
2020-01-10 22:00:00 6.6 2 Sudeste 6 Este 0 -- -- 99
2020-01-10 21:00:00 7.4 4 Sudeste 6 Este 0 -- -- 99
2020-01-10 20:00:00 8.2 2 Sudeste 4 Norte 0.4 -- -- 98
2020-01-10 19:00:00 8.4 0 Calma 7 Este 0 -- -- 96
2020-01-10 18:00:00 9.1 3 Noroeste 19 Nordeste 0.8 -- -- 93
2020-01-10 17:00:00 10.7 5 Norte 18 Noroeste 0 -- -- 79
2020-01-10 16:00:00 11.1 9 Noroeste 27 Norte 0 -- -- 79
2020-01-10 15:00:00 10.4 5 Oeste 23 Oeste 0.4 -- -- 93
2020-01-10 14:00:00 9.8 14 Oeste 23 Oeste 0.6 -- -- 91
2020-01-10 13:00:00 10.1 10 Noroeste 21 Noroeste 3.4 -- -- 92
2020-01-10 12:00:00 9.4 12 Noroeste 20 Noroeste 0.2 -- -- 93
2020-01-10 11:00:00 9 8 Noroeste 15 Noroeste 0.2 -- -- 94
2020-01-10 10:00:00 7.8 7 Noroeste 13 Noroeste 0 -- -- 97
2020-01-10 09:00:00 7.5 4 Noroeste 13 Noroeste 0.2 -- -- 97
2020-01-10 08:00:00 7.4 0 Calma 12 Noroeste 0.6 -- -- 97
2020-01-10 07:00:00 7.6 2 Norte 23 Nordeste 1.2 -- -- 95
2020-01-10 06:00:00 7.8 5 Noroeste 10 Norte 0.4 -- -- 94
2020-01-10 05:00:00 7.9 3 Noroeste 14 Noroeste 0.2 -- -- 94
2020-01-10 04:00:00 8.3 7 Noroeste 26 Oeste 0.2 -- -- 89
2020-01-10 03:00:00 8.8 8 Oeste 15 Oeste 0 -- -- 86
2020-01-10 02:00:00 8.8 18 Noroeste 32 Noroeste 0.8 -- -- 87
2020-01-10 01:00:00 8.7 2 Noroeste 17 Oeste 0 -- -- 92
2020-01-10 00:00:00 9 8 Noroeste 19 Oeste 0 -- -- 92
2020-01-09 23:00:00 8.6 0 Calma 5 Sur 0 -- -- 98
2020-01-09 22:00:00 9 0 Calma 5 Este 0.6 -- -- 98
2020-01-09 21:00:00 9.4 4 Sudeste 11 Oeste 0.2 -- -- 97
2020-01-09 20:00:00 9.8 2 Sudoeste 6 Sudoeste 0.4 -- -- 96
2020-01-09 19:00:00 10.2 5 Sudeste 8 Este 0 -- -- 95
2020-01-09 18:00:00 10.8 3 Sudeste 57 Noroeste 0.6 -- -- 91
2020-01-09 17:00:00 12.8 40 Noroeste 73 Noroeste 0 -- -- 77
2020-01-09 16:00:00 16 8 Sudeste 32 Este 0 -- -- 60
2020-01-09 15:00:00 15.3 5 Sudeste 27 Este 0 -- -- 59
2020-01-09 14:00:00 15 17 Este 37 Este 0 -- -- 56
2020-01-09 13:00:00 14.9 12 Sudeste 30 Sudeste 0 -- -- 58
2020-01-09 12:00:00 13.8 13 Este 26 Este 0 -- -- 60
2020-01-09 11:00:00 11.2 3 Sur 18 Este 0 -- -- 78
2020-01-09 10:00:00 7.1 4 Sur 12 Este 0 -- -- 90
2020-01-09 09:00:00 6.9 3 Oeste 14 Sudeste 0 -- -- 89
2020-01-09 08:00:00 7 3 Sudeste 12 Noroeste 0 -- -- 88
2020-01-09 07:00:00 6.1 2 Noroeste 8 Norte 0 -- -- 93
2020-01-09 06:00:00 5.9 3 Sudeste 7 Sudeste 0 -- -- 94
2020-01-09 05:00:00 6.6 2 Norte 8 Norte 0 -- -- 90
2020-01-09 04:00:00 7.2 3 Oeste 11 Sudeste 0 -- -- 91
2020-01-09 03:00:00 6.1 5 Sur 12 Sur 0 -- -- 100
2020-01-09 02:00:00 5 3 Norte 6 Norte 0 -- -- 99
2020-01-09 01:00:00 5.1 3 Este 7 Este 0 -- -- 98
2020-01-09 00:00:00 5.8 0 Calma 5 Sudeste 0 -- -- 97
2020-01-08 23:00:00 6.1 2 Norte 8 Norte 0 -- -- 96
2020-01-08 22:00:00 6.8 2 Sudeste 7 Sudeste 0 -- -- 95
2020-01-08 21:00:00 7.4 0 Calma 4 Este 0 -- -- 94
2020-01-08 20:00:00 8.4 3 Este 7 Sudeste 0 -- -- 90
2020-01-08 19:00:00 10 3 Sudeste 10 Sudeste 0 -- -- 85
2020-01-08 18:00:00 11.9 3 Sudeste 5 Sudeste 0 -- -- 77
2020-01-08 17:00:00 14.7 3 Sudoeste 6 Oeste 0 -- -- 69
2020-01-08 16:00:00 17.1 4 Sudoeste 8 Sur 0 -- -- 60
2020-01-08 15:00:00 17.3 4 Sudoeste 8 Noroeste 0 -- -- 56
2020-01-08 14:00:00 15.9 2 Noroeste 6 Noroeste 0 -- -- 63
2020-01-08 13:00:00 13.2 0 Calma 5 Sudoeste 0 -- -- 82
2020-01-08 12:00:00 10.5 3 Sur 7 Sur 0 -- -- 95
2020-01-08 11:00:00 7.6 3 Sur 6 Sur 0 -- -- 100
2020-01-08 10:00:00 5.2 2 Sudeste 8 Sudeste 0 -- -- 100
2020-01-08 09:00:00 4.8 3 Sudeste 5 Sur 0 -- -- 100
2020-01-08 08:00:00 4.9 2 Sur 6 Sudeste 0 -- -- 100
2020-01-08 07:00:00 4.7 3 Sudeste 4 Sudeste 0 -- -- 100
2020-01-08 06:00:00 4.6 0 Calma 3 Sudeste 0 -- -- 100
2020-01-08 05:00:00 4.8 0 Calma 2 Sudeste 0 -- -- 100
2020-01-08 04:00:00 4.9 0 Calma 5 Este 0 -- -- 100
2020-01-08 03:00:00 5.3 0 Calma 2 Sur 0 -- -- 100
2020-01-08 02:00:00 5.7 0 Calma 7 Sur 0 -- -- 99
2020-01-08 01:00:00 5.8 2 Este 10 Sudeste 0 -- -- 99
2020-01-08 00:00:00 6.2 5 Sudeste 8 Este 0 -- -- 99
2020-01-07 23:00:00 6.6 0 Calma 7 Sudeste 0 -- -- 98
2020-01-07 22:00:00 7.1 3 Sudeste 6 Sudeste 0 -- -- 98
2020-01-07 21:00:00 7.6 2 Sudeste 4 Este 0 -- -- 96
2020-01-07 20:00:00 8.3 0 Calma 6 Este 0 -- -- 94
2020-01-07 19:00:00 9.8 2 Este 7 Este 0 -- -- 91
2020-01-07 18:00:00 11.7 3 Sudeste 5 Este 0 -- -- 86
2020-01-07 17:00:00 14.3 0 Calma 5 Sudeste 0 -- -- 75
2020-01-07 16:00:00 16.3 3 Sur 8 Sur 0 -- -- 67
2020-01-07 15:00:00 16 5 Sur 10 Este 0 -- -- 62
2020-01-07 14:00:00 14.4 5 Este 13 Sur 0 -- -- 66
2020-01-07 13:00:00 12.8 6 Sur 15 Sudeste 0 -- -- 73
2020-01-07 12:00:00 9.5 7 Sur 15 Sur 0 -- -- 88
2020-01-07 11:00:00 5.5 4 Sudeste 7 Sudeste 0 -- -- 100
2020-01-07 10:00:00 4 2 Sudeste 6 Sudeste 0 -- -- 100
2020-01-07 09:00:00 2.4 4 Sudeste 5 Sur 0 -- -- 100
2020-01-07 08:00:00 2.9 0 Calma 4 Sudeste 0 -- -- 100
2020-01-07 07:00:00 2.9 2 Sudeste 5 Sudeste 0 -- -- 100
2020-01-07 06:00:00 3.3 4 Sudeste 10 Sur 0 -- -- 100
2020-01-07 05:00:00 3 3 Sudeste 7 Sudeste 0 -- -- 100
2020-01-07 04:00:00 3.4 0 Calma 4 Sur 0 -- -- 100
2020-01-07 03:00:00 4 2 Sur 10 Sudeste 0 -- -- 99
2020-01-07 02:00:00 4.4 8 Sudeste 14 Sudeste 0 -- -- 100
2020-01-07 01:00:00 3.8 4 Sur 6 Sudeste 0 -- -- 100
2020-01-07 00:00:00 3.3 0 Calma 3 Noroeste 0 -- -- 99
2020-01-06 23:00:00 4 0 Calma 2 Sur 0 -- -- 98
2020-01-06 22:00:00 5 4 Sudeste 9 Sudeste 0 -- -- 98
2020-01-06 21:00:00 5.4 3 Sudeste 7 Sudeste 0 -- -- 98
2020-01-06 20:00:00 5.9 3 Este 7 Noroeste 0 -- -- 96
2020-01-06 19:00:00 7 2 Sudoeste 10 Este 0 -- -- 91
2020-01-06 18:00:00 9.6 2 Sudeste 15 Norte 0 -- -- 86
2020-01-06 17:00:00 11.3 10 Noroeste 19 Noroeste 0 -- -- 80
2020-01-06 16:00:00 12.5 11 Noroeste 22 Noroeste 0 -- -- 66
2020-01-06 15:00:00 13.4 9 Noroeste 15 Noroeste 0 -- -- 61
2020-01-06 14:00:00 12.3 3 Oeste 8 Oeste 0 -- -- 62
2020-01-06 13:00:00 8.9 0 Calma 4 Noroeste 0 -- -- 78
2020-01-06 12:00:00 5 2 Este 5 Sur 0 -- -- 100
2020-01-06 11:00:00 1.7 0 Calma 3 Sur 0 -- -- 100
2020-01-06 10:00:00 0.8 0 Calma 6 Norte 0 -- -- 100